createdAt,value
2023-02-19T00:04:21.889Z,10.6
2023-02-19T00:19:17.705Z,10.47
2023-02-19T00:34:13.521Z,10.66
2023-02-19T00:49:10.337Z,10.65
2023-02-19T01:04:06.970Z,10.61
2023-02-19T01:19:02.891Z,10.59
2023-02-19T01:33:59.549Z,10.37
2023-02-19T01:48:55.992Z,10.23
2023-02-19T02:03:52.231Z,10.04
2023-02-19T02:18:48.548Z,9.81
2023-02-19T02:33:45.032Z,9.92
2023-02-19T02:48:41.226Z,9.86
2023-02-19T03:03:37.790Z,10.02
2023-02-19T03:18:33.982Z,10.03
2023-02-19T03:33:30.465Z,10.07
2023-02-19T03:48:26.356Z,10.08
2023-02-19T04:03:22.554Z,10.18
2023-02-19T04:18:18.406Z,10.23
2023-02-19T04:33:15.004Z,10.27
2023-02-19T04:48:11.038Z,10.26
2023-02-19T05:03:07.397Z,10.24
2023-02-19T05:18:03.232Z,10.13
2023-02-19T05:32:59.221Z,10.07
2023-02-19T05:47:55.825Z,10.09
2023-02-19T06:02:51.942Z,10.23
2023-02-19T06:17:48.000Z,10.12
2023-02-19T06:32:43.735Z,9.75
2023-02-19T06:47:39.519Z,9.73
2023-02-19T07:02:35.801Z,9.62
2023-02-19T07:32:28.006Z,9.76
2023-02-19T07:47:24.521Z,9.79
2023-02-19T08:02:21.525Z,9.75
2023-02-19T08:17:16.764Z,9.81
2023-02-19T08:32:12.695Z,9.84
2023-02-19T08:47:08.634Z,9.57
2023-02-19T09:02:04.897Z,9.81
2023-02-19T09:17:01.158Z,10.21
2023-02-19T09:31:57.770Z,10.45
2023-02-19T09:46:53.592Z,10.75
2023-02-19T10:01:50.274Z,10.85
2023-02-19T10:16:46.843Z,10.81
2023-02-19T10:31:43.272Z,10.98
2023-02-19T10:46:39.155Z,11.05
2023-02-19T11:01:35.318Z,10.56
2023-02-19T11:16:31.213Z,10.6
2023-02-19T12:16:16.400Z,10.78
2023-02-19T12:31:13.169Z,10.46
2023-02-19T12:46:09.466Z,10.14
2023-02-19T13:01:05.348Z,10.13
2023-02-19T13:16:01.314Z,11.16
2023-02-19T13:30:58.165Z,10.93
2023-02-19T13:45:54.114Z,10.51
2023-02-19T14:00:50.136Z,11.06
2023-02-19T14:15:46.682Z,10.92
2023-02-19T15:15:30.606Z,9.66
2023-02-19T15:30:26.784Z,9.59
2023-02-19T15:45:22.916Z,9.65
2023-02-19T16:00:19.032Z,9.63
2023-02-19T16:15:14.992Z,9.78
2023-02-19T16:30:11.521Z,9.85
2023-02-19T16:45:07.224Z,9.63
2023-02-19T17:00:03.374Z,9.61
2023-02-19T17:14:59.249Z,9.62
2023-02-19T17:29:55.466Z,9.07
2023-02-19T17:44:51.705Z,8.88
2023-02-19T17:59:47.869Z,8.95
2023-02-19T18:14:43.684Z,8.97
2023-02-19T18:29:39.779Z,8.83
2023-02-19T18:44:35.760Z,8.72
2023-02-19T18:59:32.042Z,8.65
2023-02-19T19:14:28.363Z,8.58
2023-02-19T19:29:24.113Z,8.58
2023-02-19T19:44:20.236Z,8.51
2023-02-19T19:59:16.332Z,8.42
2023-02-19T20:14:12.613Z,8.48
2023-02-19T20:29:08.680Z,8.46
2023-02-19T20:44:04.841Z,8.3
2023-02-19T20:59:01.312Z,8.25
2023-02-19T21:13:57.337Z,8.13
2023-02-19T21:28:53.326Z,8.12
2023-02-19T21:43:49.478Z,8.12
2023-02-19T21:58:45.836Z,8.08
2023-02-19T22:13:41.903Z,8.04
2023-02-19T22:28:37.883Z,7.64
2023-02-19T22:43:33.909Z,7.57
2023-02-19T22:58:29.777Z,7.17
2023-02-19T23:13:25.803Z,6.75
2023-02-19T23:28:21.736Z,6.07
2023-02-19T23:43:18.223Z,5.48
2023-02-19T23:58:14.056Z,5.08
